sensor_id;sensor_type;location;lat;lon;timestamp;P1;durP1;ratioP1;P2;durP2;ratioP2
53652;SDS011;39553;52.954;5.932;2023-01-01T00:01:08;12.13;;;5.82;;
53652;SDS011;39553;52.954;5.932;2023-01-01T00:03:35;9.65;;;5.78;;
53652;SDS011;39553;52.954;5.932;2023-01-01T00:06:08;11.30;;;5.28;;
53652;SDS011;39553;52.954;5.932;2023-01-01T00:08:36;7.15;;;4.53;;
53652;SDS011;39553;52.954;5.932;2023-01-01T00:11:02;9.18;;;5.20;;
53652;SDS011;39553;52.954;5.932;2023-01-01T00:13:29;7.75;;;4.90;;
53652;SDS011;39553;52.954;5.932;2023-01-01T00:15:55;12.30;;;4.68;;
53652;SDS011;39553;52.954;5.932;2023-01-01T00:18:27;11.07;;;5.07;;
53652;SDS011;39553;52.954;5.932;2023-01-01T00:21:00;15.05;;;5.43;;
53652;SDS011;39553;52.954;5.932;2023-01-01T00:23:27;16.30;;;6.55;;
53652;SDS011;39553;52.954;5.932;2023-01-01T00:25:52;10.07;;;6.13;;
53652;SDS011;39553;52.954;5.932;2023-01-01T00:28:18;13.70;;;7.43;;
53652;SDS011;39553;52.954;5.932;2023-01-01T00:30:44;20.33;;;8.18;;
53652;SDS011;39553;52.954;5.932;2023-01-01T00:33:09;14.35;;;9.40;;
53652;SDS011;39553;52.954;5.932;2023-01-01T00:35:35;27.92;;;12.73;;
53652;SDS011;39553;52.954;5.932;2023-01-01T00:38:01;26.38;;;14.05;;
53652;SDS011;39553;52.954;5.932;2023-01-01T00:40:27;28.27;;;15.25;;
53652;SDS011;39553;52.954;5.932;2023-01-01T00:42:53;22.98;;;14.20;;
53652;SDS011;39553;52.954;5.932;2023-01-01T00:45:19;28.80;;;18.30;;
53652;SDS011;39553;52.954;5.932;2023-01-01T00:47:45;29.10;;;15.25;;
53652;SDS011;39553;52.954;5.932;2023-01-01T00:50:11;33.22;;;18.13;;
53652;SDS011;39553;52.954;5.932;2023-01-01T00:52:37;26.92;;;16.05;;
53652;SDS011;39553;52.954;5.932;2023-01-01T00:55:02;27.02;;;17.30;;
53652;SDS011;39553;52.954;5.932;2023-01-01T00:57:28;27.67;;;16.60;;
53652;SDS011;39553;52.954;5.932;2023-01-01T00:59:54;28.65;;;17.30;;
53652;SDS011;39553;52.954;5.932;2023-01-01T01:02:20;31.23;;;17.52;;
53652;SDS011;39553;52.954;5.932;2023-01-01T01:04:46;30.58;;;15.25;;
53652;SDS011;39553;52.954;5.932;2023-01-01T01:07:11;30.63;;;17.48;;
53652;SDS011;39553;52.954;5.932;2023-01-01T01:09:37;33.70;;;16.67;;
53652;SDS011;39553;52.954;5.932;2023-01-01T01:12:03;29.25;;;17.10;;
53652;SDS011;39553;52.954;5.932;2023-01-01T01:14:29;30.27;;;18.90;;
53652;SDS011;39553;52.954;5.932;2023-01-01T01:16:54;35.90;;;19.85;;
53652;SDS011;39553;52.954;5.932;2023-01-01T01:19:20;36.22;;;20.13;;
53652;SDS011;39553;52.954;5.932;2023-01-01T01:21:48;35.08;;;20.17;;
53652;SDS011;39553;52.954;5.932;2023-01-01T01:24:15;34.65;;;20.75;;
53652;SDS011;39553;52.954;5.932;2023-01-01T01:26:41;36.45;;;21.80;;
53652;SDS011;39553;52.954;5.932;2023-01-01T01:29:06;44.13;;;24.23;;
53652;SDS011;39553;52.954;5.932;2023-01-01T01:31:32;38.38;;;21.13;;
53652;SDS011;39553;52.954;5.932;2023-01-01T01:33:59;36.78;;;21.63;;
53652;SDS011;39553;52.954;5.932;2023-01-01T01:36:25;42.15;;;22.88;;
53652;SDS011;39553;52.954;5.932;2023-01-01T01:38:52;48.72;;;28.30;;
53652;SDS011;39553;52.954;5.932;2023-01-01T01:41:19;46.00;;;27.33;;
53652;SDS011;39553;52.954;5.932;2023-01-01T01:46:30;44.13;;;25.83;;
53652;SDS011;39553;52.954;5.932;2023-01-01T01:49:00;52.50;;;28.60;;
53652;SDS011;39553;52.954;5.932;2023-01-01T01:51:37;40.75;;;26.83;;
53652;SDS011;39553;52.954;5.932;2023-01-01T01:54:10;51.33;;;27.50;;
53652;SDS011;39553;52.954;5.932;2023-01-01T01:56:49;45.03;;;30.27;;
53652;SDS011;39553;52.954;5.932;2023-01-01T01:59:21;48.95;;;29.58;;
53652;SDS011;39553;52.954;5.932;2023-01-01T02:01:50;45.13;;;27.08;;
53652;SDS011;39553;52.954;5.932;2023-01-01T02:04:17;53.63;;;30.27;;
53652;SDS011;39553;52.954;5.932;2023-01-01T02:06:43;47.75;;;25.98;;
53652;SDS011;39553;52.954;5.932;2023-01-01T02:09:09;38.78;;;24.17;;
53652;SDS011;39553;52.954;5.932;2023-01-01T02:11:35;39.58;;;23.13;;
53652;SDS011;39553;52.954;5.932;2023-01-01T02:14:02;39.88;;;23.60;;
53652;SDS011;39553;52.954;5.932;2023-01-01T02:16:32;40.65;;;21.73;;
53652;SDS011;39553;52.954;5.932;2023-01-01T02:21:58;34.90;;;19.85;;
53652;SDS011;39553;52.954;5.932;2023-01-01T02:30:04;28.15;;;16.40;;
53652;SDS011;39553;52.954;5.932;2023-01-01T02:32:40;22.60;;;13.20;;
53652;SDS011;39553;52.954;5.932;2023-01-01T02:41:11;21.25;;;12.48;;
53652;SDS011;39553;52.954;5.932;2023-01-01T02:43:43;21.83;;;10.90;;
53652;SDS011;39553;52.954;5.932;2023-01-01T02:46:10;24.35;;;11.45;;
53652;SDS011;39553;52.954;5.932;2023-01-01T02:48:40;19.77;;;10.07;;
53652;SDS011;39553;52.954;5.932;2023-01-01T02:54:13;18.98;;;9.35;;
53652;SDS011;39553;52.954;5.932;2023-01-01T03:11:34;9.98;;;5.28;;
53652;SDS011;39553;52.954;5.932;2023-01-01T03:16:51;21.10;;;8.27;;
53652;SDS011;39553;52.954;5.932;2023-01-01T03:19:23;18.33;;;10.40;;
53652;SDS011;39553;52.954;5.932;2023-01-01T03:24:32;13.90;;;5.03;;
53652;SDS011;39553;52.954;5.932;2023-01-01T03:27:01;17.25;;;8.07;;
53652;SDS011;39553;52.954;5.932;2023-01-01T03:29:47;14.73;;;7.40;;
53652;SDS011;39553;52.954;5.932;2023-01-01T03:32:17;14.15;;;6.10;;
53652;SDS011;39553;52.954;5.932;2023-01-01T03:35:08;13.15;;;6.70;;
53652;SDS011;39553;52.954;5.932;2023-01-01T03:37:36;16.30;;;7.72;;
53652;SDS011;39553;52.954;5.932;2023-01-01T03:40:02;15.75;;;6.78;;
53652;SDS011;39553;52.954;5.932;2023-01-01T03:42:33;11.38;;;5.07;;
53652;SDS011;39553;52.954;5.932;2023-01-01T03:45:04;11.10;;;4.80;;
53652;SDS011;39553;52.954;5.932;2023-01-01T03:47:34;15.75;;;9.88;;
53652;SDS011;39553;52.954;5.932;2023-01-01T03:50:01;13.25;;;6.32;;
53652;SDS011;39553;52.954;5.932;2023-01-01T03:52:30;10.35;;;4.45;;
53652;SDS011;39553;52.954;5.932;2023-01-01T03:58:38;13.85;;;4.75;;
53652;SDS011;39553;52.954;5.932;2023-01-01T04:01:00;14.40;;;4.85;;
53652;SDS011;39553;52.954;5.932;2023-01-01T04:03:30;15.70;;;5.53;;
53652;SDS011;39553;52.954;5.932;2023-01-01T04:06:00;14.13;;;4.13;;
53652;SDS011;39553;52.954;5.932;2023-01-01T04:08:26;14.50;;;4.72;;
53652;SDS011;39553;52.954;5.932;2023-01-01T04:10:54;13.55;;;3.80;;
53652;SDS011;39553;52.954;5.932;2023-01-01T04:13:22;13.05;;;4.50;;
53652;SDS011;39553;52.954;5.932;2023-01-01T04:15:48;15.50;;;4.30;;
53652;SDS011;39553;52.954;5.932;2023-01-01T04:18:14;12.45;;;3.95;;
53652;SDS011;39553;52.954;5.932;2023-01-01T04:20:40;12.02;;;4.20;;
53652;SDS011;39553;52.954;5.932;2023-01-01T04:23:06;9.05;;;3.78;;
53652;SDS011;39553;52.954;5.932;2023-01-01T04:25:31;9.35;;;2.88;;
53652;SDS011;39553;52.954;5.932;2023-01-01T04:27:57;16.98;;;4.13;;
53652;SDS011;39553;52.954;5.932;2023-01-01T04:30:23;17.80;;;4.70;;
53652;SDS011;39553;52.954;5.932;2023-01-01T04:32:50;15.80;;;4.30;;
53652;SDS011;39553;52.954;5.932;2023-01-01T04:35:16;15.23;;;4.63;;
53652;SDS011;39553;52.954;5.932;2023-01-01T04:37:42;11.80;;;3.90;;
53652;SDS011;39553;52.954;5.932;2023-01-01T04:40:10;11.27;;;3.25;;
53652;SDS011;39553;52.954;5.932;2023-01-01T04:42:37;10.43;;;4.10;;
53652;SDS011;39553;52.954;5.932;2023-01-01T04:45:03;10.93;;;3.83;;
53652;SDS011;39553;52.954;5.932;2023-01-01T04:47:29;13.32;;;3.00;;
53652;SDS011;39553;52.954;5.932;2023-01-01T04:49:55;9.32;;;2.90;;
53652;SDS011;39553;52.954;5.932;2023-01-01T04:52:21;12.43;;;3.13;;
53652;SDS011;39553;52.954;5.932;2023-01-01T04:54:47;9.05;;;3.08;;
53652;SDS011;39553;52.954;5.932;2023-01-01T04:57:12;14.73;;;3.47;;
53652;SDS011;39553;52.954;5.932;2023-01-01T04:59:38;16.42;;;3.67;;
53652;SDS011;39553;52.954;5.932;2023-01-01T05:02:05;17.65;;;3.55;;
53652;SDS011;39553;52.954;5.932;2023-01-01T05:04:30;10.68;;;2.90;;
53652;SDS011;39553;52.954;5.932;2023-01-01T05:06:56;8.45;;;2.60;;
53652;SDS011;39553;52.954;5.932;2023-01-01T05:09:22;7.68;;;2.10;;
53652;SDS011;39553;52.954;5.932;2023-01-01T05:11:48;10.93;;;3.00;;
53652;SDS011;39553;52.954;5.932;2023-01-01T05:14:13;7.97;;;3.47;;
53652;SDS011;39553;52.954;5.932;2023-01-01T05:16:39;5.82;;;2.40;;
53652;SDS011;39553;52.954;5.932;2023-01-01T05:19:05;10.40;;;2.28;;
53652;SDS011;39553;52.954;5.932;2023-01-01T05:21:32;9.05;;;2.85;;
53652;SDS011;39553;52.954;5.932;2023-01-01T05:24:06;6.18;;;2.00;;
53652;SDS011;39553;52.954;5.932;2023-01-01T05:26:34;8.18;;;2.38;;
53652;SDS011;39553;52.954;5.932;2023-01-01T05:29:02;7.20;;;2.10;;
53652;SDS011;39553;52.954;5.932;2023-01-01T05:31:30;6.40;;;2.20;;
53652;SDS011;39553;52.954;5.932;2023-01-01T05:33:58;6.65;;;1.95;;
53652;SDS011;39553;52.954;5.932;2023-01-01T05:36:31;2.80;;;1.33;;
53652;SDS011;39553;52.954;5.932;2023-01-01T05:38:58;3.67;;;1.83;;
53652;SDS011;39553;52.954;5.932;2023-01-01T05:41:24;7.43;;;1.77;;
53652;SDS011;39553;52.954;5.932;2023-01-01T05:43:51;6.47;;;1.52;;
53652;SDS011;39553;52.954;5.932;2023-01-01T05:46:23;2.55;;;1.20;;
53652;SDS011;39553;52.954;5.932;2023-01-01T05:48:50;4.20;;;1.48;;
53652;SDS011;39553;52.954;5.932;2023-01-01T05:51:21;6.07;;;1.70;;
53652;SDS011;39553;52.954;5.932;2023-01-01T05:53:48;5.38;;;1.58;;
53652;SDS011;39553;52.954;5.932;2023-01-01T05:56:15;5.05;;;1.23;;
53652;SDS011;39553;52.954;5.932;2023-01-01T05:58:41;6.35;;;1.50;;
53652;SDS011;39553;52.954;5.932;2023-01-01T06:01:09;6.93;;;1.27;;
53652;SDS011;39553;52.954;5.932;2023-01-01T06:03:37;7.50;;;1.67;;
53652;SDS011;39553;52.954;5.932;2023-01-01T06:06:04;7.38;;;2.42;;
53652;SDS011;39553;52.954;5.932;2023-01-01T06:08:31;7.60;;;1.67;;
53652;SDS011;39553;52.954;5.932;2023-01-01T06:11:01;3.58;;;1.08;;
53652;SDS011;39553;52.954;5.932;2023-01-01T06:13:28;8.82;;;2.22;;
53652;SDS011;39553;52.954;5.932;2023-01-01T06:15:55;6.32;;;1.42;;
53652;SDS011;39553;52.954;5.932;2023-01-01T06:18:23;12.73;;;1.60;;
53652;SDS011;39553;52.954;5.932;2023-01-01T06:20:49;8.52;;;2.03;;
53652;SDS011;39553;52.954;5.932;2023-01-01T06:23:15;6.75;;;1.98;;
53652;SDS011;39553;52.954;5.932;2023-01-01T06:25:41;11.45;;;2.15;;
53652;SDS011;39553;52.954;5.932;2023-01-01T06:28:07;8.82;;;1.95;;
53652;SDS011;39553;52.954;5.932;2023-01-01T06:30:33;7.90;;;1.70;;
53652;SDS011;39553;52.954;5.932;2023-01-01T06:32:59;6.63;;;1.70;;
53652;SDS011;39553;52.954;5.932;2023-01-01T06:35:25;7.00;;;1.98;;
53652;SDS011;39553;52.954;5.932;2023-01-01T06:37:52;6.88;;;1.92;;
53652;SDS011;39553;52.954;5.932;2023-01-01T06:40:17;9.95;;;1.75;;
53652;SDS011;39553;52.954;5.932;2023-01-01T06:42:43;6.78;;;2.38;;
53652;SDS011;39553;52.954;5.932;2023-01-01T06:45:11;4.60;;;2.05;;
53652;SDS011;39553;52.954;5.932;2023-01-01T06:47:37;7.45;;;2.60;;
53652;SDS011;39553;52.954;5.932;2023-01-01T06:50:03;13.23;;;2.97;;
53652;SDS011;39553;52.954;5.932;2023-01-01T06:52:29;6.55;;;2.13;;
53652;SDS011;39553;52.954;5.932;2023-01-01T06:54:55;12.23;;;2.60;;
53652;SDS011;39553;52.954;5.932;2023-01-01T06:57:22;12.70;;;2.45;;
53652;SDS011;39553;52.954;5.932;2023-01-01T06:59:48;19.65;;;3.22;;
53652;SDS011;39553;52.954;5.932;2023-01-01T07:02:13;14.98;;;2.70;;
53652;SDS011;39553;52.954;5.932;2023-01-01T07:04:39;11.98;;;2.00;;
53652;SDS011;39553;52.954;5.932;2023-01-01T07:07:05;6.82;;;1.98;;
53652;SDS011;39553;52.954;5.932;2023-01-01T07:09:30;15.57;;;2.55;;
53652;SDS011;39553;52.954;5.932;2023-01-01T07:11:56;14.43;;;3.45;;
53652;SDS011;39553;52.954;5.932;2023-01-01T07:14:22;11.48;;;3.15;;
53652;SDS011;39553;52.954;5.932;2023-01-01T07:16:48;8.77;;;2.45;;
53652;SDS011;39553;52.954;5.932;2023-01-01T07:19:13;17.80;;;2.85;;
53652;SDS011;39553;52.954;5.932;2023-01-01T07:21:40;15.68;;;3.35;;
53652;SDS011;39553;52.954;5.932;2023-01-01T07:24:10;19.42;;;2.92;;
53652;SDS011;39553;52.954;5.932;2023-01-01T07:26:37;15.05;;;3.42;;
53652;SDS011;39553;52.954;5.932;2023-01-01T07:29:04;11.35;;;2.55;;
53652;SDS011;39553;52.954;5.932;2023-01-01T07:31:30;28.85;;;4.80;;
53652;SDS011;39553;52.954;5.932;2023-01-01T07:33:55;23.50;;;3.50;;
53652;SDS011;39553;52.954;5.932;2023-01-01T07:36:21;15.25;;;2.22;;
53652;SDS011;39553;52.954;5.932;2023-01-01T07:38:47;11.27;;;3.28;;
53652;SDS011;39553;52.954;5.932;2023-01-01T07:41:13;14.07;;;3.03;;
53652;SDS011;39553;52.954;5.932;2023-01-01T07:43:38;19.77;;;4.03;;
53652;SDS011;39553;52.954;5.932;2023-01-01T07:46:04;7.97;;;2.38;;
53652;SDS011;39553;52.954;5.932;2023-01-01T07:48:30;14.45;;;3.28;;
53652;SDS011;39553;52.954;5.932;2023-01-01T07:50:56;13.93;;;3.08;;
53652;SDS011;39553;52.954;5.932;2023-01-01T07:53:23;18.65;;;2.80;;
53652;SDS011;39553;52.954;5.932;2023-01-01T07:55:48;9.07;;;2.33;;
53652;SDS011;39553;52.954;5.932;2023-01-01T07:58:14;21.10;;;3.45;;
53652;SDS011;39553;52.954;5.932;2023-01-01T08:00:40;18.05;;;3.83;;
53652;SDS011;39553;52.954;5.932;2023-01-01T08:03:09;22.98;;;3.63;;
53652;SDS011;39553;52.954;5.932;2023-01-01T08:05:36;17.48;;;3.40;;
53652;SDS011;39553;52.954;5.932;2023-01-01T08:08:02;17.23;;;3.25;;
53652;SDS011;39553;52.954;5.932;2023-01-01T08:10:29;9.90;;;2.65;;
53652;SDS011;39553;52.954;5.932;2023-01-01T08:12:59;17.83;;;3.58;;
53652;SDS011;39553;52.954;5.932;2023-01-01T08:15:25;17.90;;;4.05;;
53652;SDS011;39553;52.954;5.932;2023-01-01T08:17:58;26.38;;;4.43;;
53652;SDS011;39553;52.954;5.932;2023-01-01T08:20:25;18.45;;;3.58;;
53652;SDS011;39553;52.954;5.932;2023-01-01T08:22:51;18.40;;;3.25;;
53652;SDS011;39553;52.954;5.932;2023-01-01T08:25:17;20.00;;;3.55;;
53652;SDS011;39553;52.954;5.932;2023-01-01T08:27:43;22.50;;;4.22;;
53652;SDS011;39553;52.954;5.932;2023-01-01T08:30:10;11.90;;;3.83;;
53652;SDS011;39553;52.954;5.932;2023-01-01T08:32:36;20.70;;;3.40;;
53652;SDS011;39553;52.954;5.932;2023-01-01T08:35:02;18.88;;;3.40;;
53652;SDS011;39553;52.954;5.932;2023-01-01T08:37:29;12.52;;;2.70;;
53652;SDS011;39553;52.954;5.932;2023-01-01T08:39:54;15.63;;;3.38;;
53652;SDS011;39553;52.954;5.932;2023-01-01T08:42:20;16.65;;;3.05;;
53652;SDS011;39553;52.954;5.932;2023-01-01T08:44:46;17.05;;;3.40;;
53652;SDS011;39553;52.954;5.932;2023-01-01T08:47:19;14.35;;;2.95;;
53652;SDS011;39553;52.954;5.932;2023-01-01T08:49:46;18.67;;;3.72;;
53652;SDS011;39553;52.954;5.932;2023-01-01T08:52:12;12.80;;;3.55;;
53652;SDS011;39553;52.954;5.932;2023-01-01T08:54:38;11.45;;;2.53;;
53652;SDS011;39553;52.954;5.932;2023-01-01T08:57:04;15.20;;;3.50;;
53652;SDS011;39553;52.954;5.932;2023-01-01T08:59:30;20.08;;;3.30;;
53652;SDS011;39553;52.954;5.932;2023-01-01T09:01:55;13.45;;;2.53;;
53652;SDS011;39553;52.954;5.932;2023-01-01T09:04:21;17.55;;;3.63;;
53652;SDS011;39553;52.954;5.932;2023-01-01T09:06:47;19.52;;;3.42;;
53652;SDS011;39553;52.954;5.932;2023-01-01T09:09:13;16.85;;;2.67;;
53652;SDS011;39553;52.954;5.932;2023-01-01T09:11:38;12.23;;;4.38;;
53652;SDS011;39553;52.954;5.932;2023-01-01T09:14:13;10.82;;;3.03;;
53652;SDS011;39553;52.954;5.932;2023-01-01T09:16:39;14.45;;;3.65;;
53652;SDS011;39553;52.954;5.932;2023-01-01T09:19:05;16.48;;;3.65;;
53652;SDS011;39553;52.954;5.932;2023-01-01T09:21:30;15.98;;;3.30;;
53652;SDS011;39553;52.954;5.932;2023-01-01T09:23:56;12.68;;;3.55;;
53652;SDS011;39553;52.954;5.932;2023-01-01T09:26:22;17.50;;;4.00;;
53652;SDS011;39553;52.954;5.932;2023-01-01T09:28:47;27.40;;;4.25;;
53652;SDS011;39553;52.954;5.932;2023-01-01T09:31:13;19.33;;;3.08;;
53652;SDS011;39553;52.954;5.932;2023-01-01T09:33:39;17.80;;;3.20;;
53652;SDS011;39553;52.954;5.932;2023-01-01T09:38:47;20.45;;;4.10;;
53652;SDS011;39553;52.954;5.932;2023-01-01T09:41:24;28.57;;;4.80;;
53652;SDS011;39553;52.954;5.932;2023-01-01T09:47:34;13.95;;;3.58;;
53652;SDS011;39553;52.954;5.932;2023-01-01T09:50:04;14.93;;;3.40;;
53652;SDS011;39553;52.954;5.932;2023-01-01T09:55:23;19.33;;;3.35;;
53652;SDS011;39553;52.954;5.932;2023-01-01T09:57:54;13.20;;;3.53;;
53652;SDS011;39553;52.954;5.932;2023-01-01T10:00:21;13.85;;;4.03;;
53652;SDS011;39553;52.954;5.932;2023-01-01T10:02:52;22.45;;;4.25;;
53652;SDS011;39553;52.954;5.932;2023-01-01T10:14:17;7.95;;;2.58;;
53652;SDS011;39553;52.954;5.932;2023-01-01T10:16:51;13.80;;;4.07;;
53652;SDS011;39553;52.954;5.932;2023-01-01T10:19:21;16.20;;;3.50;;
53652;SDS011;39553;52.954;5.932;2023-01-01T10:21:53;12.13;;;3.65;;
53652;SDS011;39553;52.954;5.932;2023-01-01T10:27:01;9.68;;;3.22;;
53652;SDS011;39553;52.954;5.932;2023-01-01T10:29:37;17.35;;;3.92;;
53652;SDS011;39553;52.954;5.932;2023-01-01T10:32:21;15.77;;;4.90;;
53652;SDS011;39553;52.954;5.932;2023-01-01T10:34:57;12.55;;;3.22;;
53652;SDS011;39553;52.954;5.932;2023-01-01T10:37:25;18.13;;;2.90;;
53652;SDS011;39553;52.954;5.932;2023-01-01T10:42:48;19.83;;;3.50;;
53652;SDS011;39553;52.954;5.932;2023-01-01T10:45:17;13.70;;;4.15;;
53652;SDS011;39553;52.954;5.932;2023-01-01T10:50:52;16.08;;;3.17;;
53652;SDS011;39553;52.954;5.932;2023-01-01T10:53:21;16.30;;;2.70;;
53652;SDS011;39553;52.954;5.932;2023-01-01T10:56:18;18.05;;;3.15;;
53652;SDS011;39553;52.954;5.932;2023-01-01T10:58:50;12.65;;;3.03;;
53652;SDS011;39553;52.954;5.932;2023-01-01T11:01:22;11.85;;;2.72;;
53652;SDS011;39553;52.954;5.932;2023-01-01T11:06:33;9.73;;;2.42;;
53652;SDS011;39553;52.954;5.932;2023-01-01T11:09:04;8.45;;;1.95;;
53652;SDS011;39553;52.954;5.932;2023-01-01T11:11:43;11.45;;;2.38;;
53652;SDS011;39553;52.954;5.932;2023-01-01T11:17:07;6.95;;;2.10;;
53652;SDS011;39553;52.954;5.932;2023-01-01T11:19:34;18.13;;;3.30;;
53652;SDS011;39553;52.954;5.932;2023-01-01T11:22:02;8.38;;;2.00;;
53652;SDS011;39553;52.954;5.932;2023-01-01T11:24:30;11.43;;;2.80;;
53652;SDS011;39553;52.954;5.932;2023-01-01T11:29:46;10.40;;;2.58;;
53652;SDS011;39553;52.954;5.932;2023-01-01T11:32:17;12.55;;;2.75;;
53652;SDS011;39553;52.954;5.932;2023-01-01T11:35:01;8.02;;;2.10;;
53652;SDS011;39553;52.954;5.932;2023-01-01T11:37:34;10.73;;;2.58;;
53652;SDS011;39553;52.954;5.932;2023-01-01T11:40:03;16.15;;;2.80;;
53652;SDS011;39553;52.954;5.932;2023-01-01T11:42:42;6.97;;;2.13;;
53652;SDS011;39553;52.954;5.932;2023-01-01T11:45:59;16.27;;;3.45;;
53652;SDS011;39553;52.954;5.932;2023-01-01T11:48:05;12.15;;;2.97;;
53652;SDS011;39553;52.954;5.932;2023-01-01T11:50:52;7.95;;;2.60;;
53652;SDS011;39553;52.954;5.932;2023-01-01T11:55:51;12.20;;;3.90;;
53652;SDS011;39553;52.954;5.932;2023-01-01T12:01:35;14.60;;;3.65;;
53652;SDS011;39553;52.954;5.932;2023-01-01T12:07:08;15.90;;;3.80;;
53652;SDS011;39553;52.954;5.932;2023-01-01T12:10:41;12.57;;;2.33;;
53652;SDS011;39553;52.954;5.932;2023-01-01T12:12:49;11.88;;;2.53;;
53652;SDS011;39553;52.954;5.932;2023-01-01T12:15:25;8.68;;;2.67;;
53652;SDS011;39553;52.954;5.932;2023-01-01T12:18:24;13.50;;;2.95;;
53652;SDS011;39553;52.954;5.932;2023-01-01T12:23:40;14.15;;;3.15;;
53652;SDS011;39553;52.954;5.932;2023-01-01T12:31:44;10.90;;;2.60;;
53652;SDS011;39553;52.954;5.932;2023-01-01T12:51:27;9.95;;;2.45;;
53652;SDS011;39553;52.954;5.932;2023-01-01T12:54:06;7.68;;;3.00;;
53652;SDS011;39553;52.954;5.932;2023-01-01T12:59:19;11.07;;;2.65;;
53652;SDS011;39553;52.954;5.932;2023-01-01T13:01:54;10.63;;;2.90;;
53652;SDS011;39553;52.954;5.932;2023-01-01T13:04:22;11.02;;;2.53;;
53652;SDS011;39553;52.954;5.932;2023-01-01T13:07:01;9.75;;;2.22;;
53652;SDS011;39553;52.954;5.932;2023-01-01T13:09:37;12.00;;;3.15;;
53652;SDS011;39553;52.954;5.932;2023-01-01T13:12:07;12.43;;;3.00;;
53652;SDS011;39553;52.954;5.932;2023-01-01T13:14:40;21.67;;;3.35;;
53652;SDS011;39553;52.954;5.932;2023-01-01T13:20:32;15.02;;;2.90;;
53652;SDS011;39553;52.954;5.932;2023-01-01T13:22:38;9.20;;;2.80;;
53652;SDS011;39553;52.954;5.932;2023-01-01T14:02:56;15.83;;;2.90;;
53652;SDS011;39553;52.954;5.932;2023-01-01T14:08:30;10.10;;;2.15;;
53652;SDS011;39553;52.954;5.932;2023-01-01T14:10:59;13.18;;;3.00;;
53652;SDS011;39553;52.954;5.932;2023-01-01T14:13:29;14.77;;;2.90;;
53652;SDS011;39553;52.954;5.932;2023-01-01T14:16:03;10.13;;;2.67;;
53652;SDS011;39553;52.954;5.932;2023-01-01T14:18:33;12.63;;;3.25;;
53652;SDS011;39553;52.954;5.932;2023-01-01T14:21:06;12.80;;;3.63;;
53652;SDS011;39553;52.954;5.932;2023-01-01T14:23:39;12.85;;;2.97;;
53652;SDS011;39553;52.954;5.932;2023-01-01T14:26:11;12.70;;;3.70;;
53652;SDS011;39553;52.954;5.932;2023-01-01T14:28:39;19.42;;;3.72;;
53652;SDS011;39553;52.954;5.932;2023-01-01T14:31:17;12.55;;;2.92;;
53652;SDS011;39553;52.954;5.932;2023-01-01T14:33:45;10.77;;;3.25;;
53652;SDS011;39553;52.954;5.932;2023-01-01T14:36:15;15.88;;;3.70;;
53652;SDS011;39553;52.954;5.932;2023-01-01T14:38:43;14.27;;;5.03;;
53652;SDS011;39553;52.954;5.932;2023-01-01T14:41:25;20.75;;;4.60;;
53652;SDS011;39553;52.954;5.932;2023-01-01T14:44:17;16.52;;;3.60;;
53652;SDS011;39553;52.954;5.932;2023-01-01T14:46:48;19.77;;;3.75;;
53652;SDS011;39553;52.954;5.932;2023-01-01T14:49:17;14.57;;;3.88;;
53652;SDS011;39553;52.954;5.932;2023-01-01T14:52:02;18.00;;;5.13;;
53652;SDS011;39553;52.954;5.932;2023-01-01T14:54:34;10.70;;;3.72;;
53652;SDS011;39553;52.954;5.932;2023-01-01T14:57:02;11.73;;;5.10;;
53652;SDS011;39553;52.954;5.932;2023-01-01T14:59:47;18.27;;;3.90;;
53652;SDS011;39553;52.954;5.932;2023-01-01T15:02:16;15.40;;;3.85;;
53652;SDS011;39553;52.954;5.932;2023-01-01T15:04:46;15.32;;;3.92;;
53652;SDS011;39553;52.954;5.932;2023-01-01T15:07:22;16.17;;;4.18;;
53652;SDS011;39553;52.954;5.932;2023-01-01T15:09:50;18.65;;;4.70;;
53652;SDS011;39553;52.954;5.932;2023-01-01T15:12:18;17.33;;;3.55;;
53652;SDS011;39553;52.954;5.932;2023-01-01T15:14:45;20.70;;;5.03;;
53652;SDS011;39553;52.954;5.932;2023-01-01T15:17:13;16.83;;;4.20;;
53652;SDS011;39553;52.954;5.932;2023-01-01T15:19:42;19.00;;;5.38;;
53652;SDS011;39553;52.954;5.932;2023-01-01T15:24:35;16.33;;;3.85;;
53652;SDS011;39553;52.954;5.932;2023-01-01T15:27:02;25.17;;;3.83;;
53652;SDS011;39553;52.954;5.932;2023-01-01T15:29:31;15.82;;;4.55;;
53652;SDS011;39553;52.954;5.932;2023-01-01T15:32:23;10.77;;;4.00;;
53652;SDS011;39553;52.954;5.932;2023-01-01T15:34:50;10.50;;;3.50;;
53652;SDS011;39553;52.954;5.932;2023-01-01T15:42:45;19.15;;;3.25;;
53652;SDS011;39553;52.954;5.932;2023-01-01T15:45:36;13.60;;;2.80;;
53652;SDS011;39553;52.954;5.932;2023-01-01T15:48:17;11.38;;;3.47;;
53652;SDS011;39553;52.954;5.932;2023-01-01T15:55:56;14.48;;;4.32;;
53652;SDS011;39553;52.954;5.932;2023-01-01T16:01:01;15.85;;;4.15;;
53652;SDS011;39553;52.954;5.932;2023-01-01T16:03:30;29.67;;;5.20;;
53652;SDS011;39553;52.954;5.932;2023-01-01T16:05:58;18.30;;;3.83;;
53652;SDS011;39553;52.954;5.932;2023-01-01T16:08:24;25.40;;;5.32;;
53652;SDS011;39553;52.954;5.932;2023-01-01T16:10:50;20.52;;;4.25;;
53652;SDS011;39553;52.954;5.932;2023-01-01T16:13:17;16.75;;;3.55;;
53652;SDS011;39553;52.954;5.932;2023-01-01T16:15:54;13.80;;;3.17;;
53652;SDS011;39553;52.954;5.932;2023-01-01T16:18:23;18.65;;;3.53;;
53652;SDS011;39553;52.954;5.932;2023-01-01T16:20:53;25.23;;;3.97;;
53652;SDS011;39553;52.954;5.932;2023-01-01T16:23:19;20.60;;;3.90;;
53652;SDS011;39553;52.954;5.932;2023-01-01T16:25:45;16.48;;;4.38;;
53652;SDS011;39553;52.954;5.932;2023-01-01T16:28:11;12.50;;;3.75;;
53652;SDS011;39553;52.954;5.932;2023-01-01T16:30:38;19.15;;;3.50;;
53652;SDS011;39553;52.954;5.932;2023-01-01T16:33:04;17.48;;;3.85;;
53652;SDS011;39553;52.954;5.932;2023-01-01T16:35:38;15.23;;;3.95;;
53652;SDS011;39553;52.954;5.932;2023-01-01T16:38:05;15.35;;;4.22;;
53652;SDS011;39553;52.954;5.932;2023-01-01T16:40:31;15.15;;;4.63;;
53652;SDS011;39553;52.954;5.932;2023-01-01T16:42:57;19.40;;;3.97;;
53652;SDS011;39553;52.954;5.932;2023-01-01T16:45:23;26.25;;;4.47;;
53652;SDS011;39553;52.954;5.932;2023-01-01T16:47:49;15.00;;;3.85;;
53652;SDS011;39553;52.954;5.932;2023-01-01T16:50:15;13.80;;;3.28;;
53652;SDS011;39553;52.954;5.932;2023-01-01T16:52:40;18.40;;;4.53;;
53652;SDS011;39553;52.954;5.932;2023-01-01T16:55:06;13.57;;;3.65;;
53652;SDS011;39553;52.954;5.932;2023-01-01T16:57:32;15.02;;;4.22;;
53652;SDS011;39553;52.954;5.932;2023-01-01T16:59:58;11.30;;;2.35;;
53652;SDS011;39553;52.954;5.932;2023-01-01T17:02:24;10.93;;;3.08;;
53652;SDS011;39553;52.954;5.932;2023-01-01T17:04:49;13.93;;;3.50;;
53652;SDS011;39553;52.954;5.932;2023-01-01T17:07:15;13.85;;;4.30;;
53652;SDS011;39553;52.954;5.932;2023-01-01T17:09:41;12.40;;;2.90;;
53652;SDS011;39553;52.954;5.932;2023-01-01T17:12:07;17.63;;;3.25;;
53652;SDS011;39553;52.954;5.932;2023-01-01T17:14:33;10.82;;;3.45;;
53652;SDS011;39553;52.954;5.932;2023-01-01T17:16:58;17.75;;;4.15;;
53652;SDS011;39553;52.954;5.932;2023-01-01T17:19:24;16.27;;;6.55;;
53652;SDS011;39553;52.954;5.932;2023-01-01T17:21:50;18.92;;;3.88;;
53652;SDS011;39553;52.954;5.932;2023-01-01T17:24:17;11.52;;;3.45;;
53652;SDS011;39553;52.954;5.932;2023-01-01T17:26:44;16.10;;;5.07;;
53652;SDS011;39553;52.954;5.932;2023-01-01T17:29:10;13.10;;;3.38;;
53652;SDS011;39553;52.954;5.932;2023-01-01T17:31:36;12.05;;;4.93;;
53652;SDS011;39553;52.954;5.932;2023-01-01T17:34:02;16.63;;;4.65;;
53652;SDS011;39553;52.954;5.932;2023-01-01T17:36:29;12.57;;;3.92;;
53652;SDS011;39553;52.954;5.932;2023-01-01T17:38:55;12.60;;;4.05;;
53652;SDS011;39553;52.954;5.932;2023-01-01T17:41:21;12.13;;;4.50;;